Latest Weather Observations for Broken Hill Airport

IDN60801

Issued at 12:02 pm EST Wednesday 28 June 2017 (issued every 30 minutes, with the page automatically refreshed every 10 minutes)

About weather observations | Map of weather stations | Latest weather observations for NSW | Other Formats
Station Details ID: 047048 Name: BROKEN HILL AIRPORT AWS Lat: -32.00 Lon: 141.47 Height: 281.3 m
Data from the previous 72 hours. | See also: Recent months at Broken Hill Airport
Date/Time
EST
Temp
°C
App
Temp
°C
Dew
Point
°C
Rel
Hum
%
Delta-T
°C
Wind Press
QNH
hPa
Press
MSL
hPa
Rain since
9am
mm
Dir  Spd
km/h
Gust
km/h
Spd
kts
Gust
kts
28/12:00pm 12.7 10.2 6.5 66 3.0 N 9 11 5 6 1023.0 1023.2 0.0
28/11:30am 13.0 10.3 5.7 61 3.5 N 9 13 5 7 1023.3 1023.5 0.0
28/11:00am 13.0 9.1 5.4 60 3.6 NE 15 20 8 11 1023.3 1023.5 0.0
28/10:30am 12.5 8.5 5.0 60 3.5 ENE 15 20 8 11 1023.3 1023.5 0.0
28/10:00am 11.9 8.8 5.5 65 3.0 ENE 11 13 6 7 1023.5 1023.7 0.0
28/09:30am 11.6 8.6 6.1 69 2.6 E 11 13 6 7 1023.2 1023.4 0.0
28/09:00am 11.4 8.8 6.1 70 2.5 ENE 9 9 5 5 1023.0 1023.2 0.0
28/08:30am 10.9 8.7 5.4 69 2.6 ESE 6 7 3 4 1022.7 1023.0 0.0
28/08:00am 10.5 8.0 4.9 68 2.6 E 7 9 4 5 1022.6 1022.8 0.0
28/07:30am 10.6 7.7 4.7 67 2.7 NE 9 13 5 7 1022.5 1022.7 0.0
28/07:00am 10.7 7.8 4.6 66 2.8 NE 9 11 5 6 1022.4 1022.6 0.0
28/06:30am 10.7 8.3 4.4 65 2.9 E 6 7 3 4 1022.2 1022.4 0.0
28/06:00am 10.8 7.5 4.5 65 2.9 NE 11 13 6 7 1022.0 1022.2 0.0
28/05:30am 10.8 7.9 4.7 66 2.8 ENE 9 13 5 7 1021.7 1021.9 0.0
28/05:00am 10.5 9.5 5.5 71 2.3 CALM 0 0 0 0 1021.8 1022.0 0.0
28/04:30am 10.2 9.2 5.6 73 2.1 CALM 0 0 0 0 1021.7 1021.9 0.0
28/04:00am 10.2 9.2 5.8 74 2.0 CALM 0 0 0 0 1022.0 1022.2 0.0
28/03:30am 10.4 9.4 5.4 71 2.3 CALM 0 0 0 0 1022.2 1022.4 0.0
28/03:00am 10.4 9.4 5.4 71 2.3 CALM 0 0 0 0 1022.4 1022.6 0.0
28/02:30am 10.6 9.6 5.4 70 2.4 CALM 0 0 0 0 1022.5 1022.7 0.0
28/02:00am 10.5 9.4 5.1 69 2.5 CALM 0 2 0 1 1022.7 1023.0 0.0
28/01:30am 10.6 8.2 5.2 69 2.5 SSW 7 9 4 5 1022.7 1023.0 0.0
28/01:00am 11.1 8.6 4.6 64 3.0 SSW 7 9 4 5 1022.7 1023.0 0.0
28/12:30am 11.3 8.8 4.5 63 3.1 S 7 11 4 6 1022.8 1023.1 0.0
28/12:00am 11.4 8.1 4.6 63 3.1 SE 11 15 6 8 1022.7 1023.0 0.0
 
Date/Time
EST
Temp
°C
App
Temp
°C
Dew
Point
°C
Rel
Hum
%
Delta-T
°C
Wind Press
QNH
hPa
Press
MSL
hPa
Rain since
9am
mm
Dir  Spd
km/h
Gust
km/h
Spd
kts
Gust
kts
27/11:30pm 11.3 8.8 4.5 63 3.1 SSE 7 9 4 5 1023.1 1023.3 0.0
27/11:00pm 11.5 8.6 4.9 64 3.0 SSE 9 11 5 6 1023.4 1023.6 0.0
27/10:30pm 11.5 8.6 4.7 63 3.1 SSE 9 13 5 7 1023.3 1023.5 0.0
27/10:00pm 11.6 8.3 4.8 63 3.1 SSE 11 13 6 7 1023.4 1023.6 0.0
27/09:30pm 11.6 8.6 4.3 61 3.3 SSW 9 13 5 7 1023.4 1023.6 0.0
27/09:00pm 11.8 8.1 4.3 60 3.4 S 13 17 7 9 1023.1 1023.3 0.0
27/08:30pm 12.1 7.7 4.6 60 3.5 S 17 20 9 11 1023.0 1023.2 0.0
27/08:00pm 12.2 7.8 4.7 60 3.5 SSW 17 22 9 12 1023.1 1023.3 0.0
27/07:30pm 12.5 8.4 4.5 58 3.7 SSW 15 19 8 10 1023.3 1023.5 0.0
27/07:00pm 12.7 8.3 4.7 58 3.7 S 17 22 9 12 1023.1 1023.3 0.0
27/06:30pm 12.8 9.1 4.5 57 3.8 SSW 13 17 7 9 1023.0 1023.2 0.0
27/06:00pm 13.1 9.4 4.5 56 4.0 SSW 13 17 7 9 1022.7 1023.0 0.0
27/05:30pm 13.3 9.2 4.5 55 4.1 SSW 15 19 8 10 1022.1 1022.3 0.0
27/05:00pm 13.7 8.8 4.3 53 4.4 SSW 19 24 10 13 1021.9 1022.1 0.0
27/04:30pm 14.3 10.1 4.0 50 4.8 SSW 15 19 8 10 1021.6 1021.8 0.0
27/04:00pm 14.5 11.2 4.5 51 4.7 SW 11 15 6 8 1021.6 1021.8 0.0
27/03:30pm 14.6 11.2 4.0 49 4.9 SW 11 13 6 7 1021.8 1022.0 0.0
27/03:00pm 14.7 12.2 3.5 47 5.1 W 6 11 3 6 1021.8 1022.0 0.0
27/02:30pm 15.0 11.9 3.5 46 5.3 WNW 9 13 5 7 1021.9 1022.1 0.0
27/02:00pm 15.0 11.8 3.2 45 5.4 N 9 13 5 7 1022.1 1022.3 0.0
27/01:30pm 15.4 12.7 3.9 46 5.4 N 7 13 4 7 1022.5 1022.7 0.0
27/01:00pm 14.9 11.9 4.3 49 5.0 NNE 9 15 5 8 1022.8 1023.1 0.0
27/12:30pm 13.9 10.1 3.9 51 4.6 NNW 13 19 7 10 1023.6 1023.8 0.0
27/12:00pm 13.6 9.9 4.5 54 4.2 N 13 19 7 10 1024.0 1024.2 0.0
27/11:30am 12.6 7.7 4.3 57 3.8 NNE 19 26 10 14 1024.5 1024.7 0.0
27/11:00am 12.5 6.8 4.7 59 3.6 NNE 24 30 13 16 1024.4 1024.6 0.0
27/10:30am 12.1 6.9 5.3 63 3.2 NE 22 26 12 14 1024.3 1024.5 0.0
27/10:00am 11.0 6.7 5.3 68 2.6 NE 17 20 9 11 1024.6 1024.8 0.0
27/09:30am 10.8 5.9 4.3 64 2.9 NE 19 22 10 12 1024.6 1024.8 0.0
27/09:00am 10.7 6.2 4.4 65 2.9 NE 17 20 9 11 1024.6 1024.8 0.0
27/08:30am 10.5 6.8 4.2 65 2.8 NE 13 17 7 9 1024.6 1024.8 0.0
27/08:00am 10.1 5.6 4.3 67 2.6 NE 17 20 9 11 1024.3 1024.5 0.0
27/07:30am 9.8 5.7 4.2 68 2.5 ENE 15 17 8 9 1024.2 1024.4 0.0
27/07:00am 10.0 6.6 4.0 66 2.7 NE 11 15 6 8 1023.9 1024.1 0.0
27/06:30am 10.1 5.9 3.8 65 2.8 NE 15 17 8 9 1023.8 1024.0 0.0
27/06:00am 10.1 6.3 3.8 65 2.8 NE 13 17 7 9 1023.3 1023.5 0.0
27/05:30am 9.6 6.2 3.8 67 2.6 ENE 11 13 6 7 1023.3 1023.5 0.0
27/05:00am 9.7 6.3 3.9 67 2.6 NE 11 13 6 7 1023.4 1023.6 0.0
27/04:30am 10.0 5.9 4.2 67 2.6 ENE 15 17 8 9 1023.5 1023.7 0.0
27/04:00am 10.0 5.5 4.2 67 2.6 ENE 17 17 9 9 1023.6 1023.8 0.0
27/03:30am 10.3 6.2 4.2 66 2.7 ENE 15 17 8 9 1024.0 1024.2 0.0
27/03:00am 9.7 5.9 3.9 67 2.6 ENE 13 15 7 8 1024.0 1024.2 0.0
27/02:30am 10.0 6.2 4.0 66 2.7 ENE 13 15 7 8 1024.4 1024.6 0.0
27/02:00am 10.0 6.5 3.7 65 2.8 ENE 11 13 6 7 1024.4 1024.6 0.0
27/01:30am 10.0 6.5 3.5 64 2.9 ENE 11 13 6 7 1024.4 1024.6 0.0
27/01:00am 10.1 6.2 3.4 63 2.9 ENE 13 13 7 7 1024.5 1024.7 0.0
27/12:30am 9.6 6.0 2.9 63 2.9 ENE 11 13 6 7 1024.7 1024.9 0.0
27/12:00am 9.4 5.7 2.5 62 3.0 E 11 11 6 6 1024.9 1025.1 0.0
 
Date/Time
EST
Temp
°C
App
Temp
°C
Dew
Point
°C
Rel
Hum
%
Delta-T
°C
Wind Press
QNH
hPa
Press
MSL
hPa
Rain since
9am
mm
Dir  Spd
km/h
Gust
km/h
Spd
kts
Gust
kts
26/11:30pm 9.9 6.3 3.2 63 2.9 ENE 11 11 6 6 1025.5 1025.7 0.0
26/11:00pm 8.2 4.4 1.8 64 2.7 ENE 11 13 6 7 1025.3 1025.5 0.0
26/10:30pm 9.5 5.9 2.8 63 2.9 ENE 11 13 6 7 1025.5 1025.7 0.0
26/10:00pm 9.7 6.5 2.8 62 3.0 ENE 9 11 5 6 1025.5 1025.7 0.0
26/09:30pm 9.8 6.2 3.1 63 2.9 ENE 11 13 6 7 1025.4 1025.6 0.0
26/09:00pm 9.4 5.8 2.7 63 2.9 E 11 13 6 7 1025.4 1025.6 0.0
26/08:30pm 9.5 5.8 2.4 61 3.1 E 11 15 6 8 1025.4 1025.6 0.0
26/08:00pm 9.5 6.1 2.1 60 3.1 ESE 9 9 5 5 1025.0 1025.2 0.0
26/07:30pm 10.1 5.7 2.7 60 3.2 SE 15 15 8 8 1024.5 1024.7 0.0
26/07:00pm 9.5 5.3 1.9 59 3.2 SE 13 15 7 8 1024.6 1024.8 0.0
26/06:30pm 10.1 6.2 1.2 54 3.7 SE 11 13 6 7 1024.6 1024.8 0.0
26/06:00pm 11.4 7.2 1.6 51 4.2 SE 13 13 7 7 1023.8 1024.0 0.0
26/05:30pm 13.0 9.3 2.3 48 4.7 ESE 11 13 6 7 1023.5 1023.7 0.0
26/05:00pm 14.4 10.4 2.6 45 5.3 SE 13 17 7 9 1023.5 1023.7 0.0
26/04:30pm 15.0 11.3 2.5 43 5.7 SE 11 17 6 9 1023.6 1023.8 0.0
26/04:00pm 15.3 11.6 2.5 42 5.8 SSE 11 17 6 9 1023.4 1023.6 0.0
26/03:30pm 15.8 13.1 2.6 41 6.0 ENE 6 11 3 6 1023.7 1023.9 0.0
26/03:00pm 15.5 12.3 3.0 43 5.7 S 9 19 5 10 1023.9 1024.1 0.0
26/02:30pm 16.0 14.5 2.8 41 6.1 CALM 0 0 0 0 1024.1 1024.3 0.0
26/02:00pm 15.2 11.9 2.7 43 5.7 S 9 15 5 8 1024.1 1024.3 0.0
26/01:30pm 14.9 11.3 3.1 45 5.4 ENE 11 19 6 10 1024.2 1024.4 0.0
26/01:00pm 14.1 10.9 3.3 48 4.9 ENE 9 17 5 9 1024.0 1024.2 0.0
26/12:30pm 14.1 10.3 3.8 50 4.7 E 13 17 7 9 1024.5 1024.7 0.0
26/12:00pm 14.2 11.4 5.3 55 4.2 E 9 15 5 8 1025.4 1025.6 0.0
26/11:30am 13.4 10.0 5.8 60 3.6 ESE 13 20 7 11 1025.4 1025.6 0.0
26/11:00am 12.6 8.8 6.0 64 3.1 ESE 15 19 8 10 1025.7 1026.0 0.0
26/10:30am 11.7 7.9 5.6 66 2.9 ESE 15 19 8 10 1026.0 1026.3 0.0
26/10:00am 11.1 7.7 6.0 71 2.4 SE 13 15 7 8 1025.7 1026.0 0.0
26/09:30am 9.3 7.1 6.2 81 1.4 S 7 11 4 6 1025.5 1025.7 0.0
26/09:00am 7.5 6.4 5.3 86 1.0 CALM 0 2 0 1 1025.3 1025.5 0.0
26/08:30am 5.6 3.3 4.6 93 0.4 WSW 6 7 3 4 1024.8 1025.0 0.0
26/08:00am 4.8 2.3 3.9 94 0.4 WSW 6 7 3 4 1024.3 1024.5 0.0
26/07:30am 4.5 1.7 3.3 92 0.5 SW 7 9 4 5 1024.0 1024.2 0.0
26/07:00am 5.1 2.4 3.9 92 0.5 S 7 9 4 5 1023.5 1023.7 0.0
26/06:30am 5.7 3.3 4.5 92 0.5 SSW 6 7 3 4 1023.6 1023.8 0.0
26/06:00am 5.8 3.2 4.4 91 0.6 SSW 7 9 4 5 1023.2 1023.4 0.0
26/05:30am 5.9 4.7 4.5 91 0.6 CALM 0 0 0 0 1022.8 1023.1 0.0
26/05:00am 5.7 3.3 4.2 90 0.6 SW 6 7 3 4 1022.8 1023.1 0.0
26/04:30am 6.0 3.6 4.5 90 0.7 SW 6 6 3 3 1022.8 1023.1 0.0
26/04:00am 5.7 4.4 4.0 89 0.7 CALM 0 0 0 0 1022.7 1023.0 0.0
26/03:30am 5.7 3.2 4.0 89 0.7 SW 6 6 3 3 1022.7 1023.0 0.0
26/03:00am 5.7 3.0 3.7 87 0.9 WSW 7 9 4 5 1022.6 1022.8 0.0
26/02:30am 5.8 3.1 3.5 85 1.0 SW 7 7 4 4 1022.2 1022.4 0.0
26/02:00am 5.7 3.0 2.7 81 1.2 SSW 6 7 3 4 1022.0 1022.2 0.0
26/01:30am 5.9 3.0 2.5 79 1.4 SW 7 7 4 4 1022.1 1022.3 0.0
26/01:00am 6.4 3.5 2.5 76 1.6 WSW 7 7 4 4 1022.3 1022.5 0.0
26/12:30am 6.6 3.3 2.3 74 1.8 SW 9 11 5 6 1022.3 1022.5 0.0
26/12:00am 6.9 3.5 2.0 71 2.0 WSW 9 13 5 7 1022.4 1022.6 0.0
 
Date/Time
EST
Temp
°C
App
Temp
°C
Dew
Point
°C
Rel
Hum
%
Delta-T
°C
Wind Press
QNH
hPa
Press
MSL
hPa
Rain since
9am
mm
Dir  Spd
km/h
Gust
km/h
Spd
kts
Gust
kts
25/11:30pm 6.0 2.1 1.0 70 2.0 SW 11 15 6 8 1022.4 1022.6 0.0
25/11:00pm 8.1 6.5 2.4 67 2.4 CALM 0 0 0 0 1022.3 1022.5 0.0
25/10:30pm 7.4 5.7 1.9 68 2.3 CALM 0 0 0 0 1022.6 1022.8 0.0
25/10:00pm 8.9 7.3 2.5 64 2.7 CALM 0 0 0 0 1022.2 1022.4 0.0
25/09:30pm 8.8 6.1 2.8 66 2.6 SW 6 9 3 5 1021.9 1022.1 0.0
25/09:00pm 9.2 6.5 2.8 64 2.8 SW 6 9 3 5 1021.6 1021.8 0.0
25/08:30pm 9.6 6.8 2.9 63 2.9 SW 7 9 4 5 1021.2 1021.4 0.0
25/08:00pm 10.4 8.6 3.2 61 3.2 SW 2 6 1 3 1021.2 1021.4 0.0
25/07:30pm 10.7 8.1 3.3 60 3.3 SW 6 6 3 3 1020.7 1020.9 0.0
25/07:00pm 10.9 7.7 3.0 58 3.5 SW 9 13 5 7 1020.5 1020.7 0.0
25/06:30pm 11.9 8.3 2.9 54 4.0 SSW 11 15 6 8 1020.1 1020.3 0.0
25/06:00pm 13.5 9.3 3.6 51 4.5 SW 15 19 8 10 1019.8 1020.0 0.0
25/05:30pm 15.3 10.8 4.4 48 5.1 SW 17 22 9 12 1019.6 1019.7 0.0
25/05:00pm 15.9 10.9 4.6 47 5.4 SW 20 26 11 14 1019.4 1019.5 0.0
25/04:30pm 16.8 11.8 4.8 45 5.8 SW 20 24 11 13 1019.1 1019.3 0.0
25/04:00pm 17.3 13.1 5.6 46 5.7 SW 17 24 9 13 1019.3 1019.4 0.0
25/03:30pm 17.4 12.7 5.0 44 6.0 SSW 19 28 10 15 1018.9 1019.1 0.0
25/03:00pm 17.5 12.9 5.4 45 5.9 SSW 19 24 10 13 1018.4 1018.6 0.0
25/02:30pm 17.8 13.1 5.1 43 6.2 SSW 19 30 10 16 1018.5 1018.7 0.0
25/02:00pm 17.9 13.1 4.8 42 6.3 SW 19 28 10 15 1018.7 1018.9 0.0
25/01:30pm 17.1 12.1 4.4 43 6.1 SSW 20 32 11 17 1018.9 1019.1 0.0
25/01:00pm 17.4 12.5 5.0 44 6.0 SW 20 28 11 15 1019.1 1019.3 0.0

Other Formats:

Comma delimited format used in spreadsheet applications
http://www.bom.gov.au/fwo/IDN60801/IDN60801.94691.axf

JavaScript Object Notation format (JSON) in row-major order
http://www.bom.gov.au/fwo/IDN60801/IDN60801.94691.json